Time;durP1;ratioP1;P1;durP2;ratioP2;P2;SDS_P1;SDS_P2;PMS_P1;PMS_P2;Temp;Humidity;BMP_temperature;BMP_pressure;BME280_temperature;BME280_humidity;BME280_pressure;Samples;Min_cycle;Max_cycle;Signal;HPM_P1;HPM_P2
2022/07/30 00:01:50;;;;;;;6.43;3.80;;;;;;;25.32;43.61;99603.47;5030268;28;20018;-38
2022/07/30 00:04:16;;;;;;;4.28;3.40;;;;;;;25.44;43.35;99602.94;5030029;28;20087;-37
2022/07/30 00:06:41;;;;;;;4.25;3.40;;;;;;;25.63;43.04;99596.56;5030616;28;20104;-37
2022/07/30 00:09:06;;;;;;;5.15;3.45;;;;;;;25.58;43.19;99599.38;5030232;28;20130;-36
2022/07/30 00:11:32;;;;;;;8.38;3.45;;;;;;;25.63;43.01;99599.28;5030054;28;20049;-36
2022/07/30 00:13:57;;;;;;;7.63;3.30;;;;;;;25.62;42.99;99603.91;5030061;28;20431;-37
2022/07/30 00:16:23;;;;;;;4.40;3.28;;;;;;;25.63;42.83;99591.91;5030059;28;20128;-36
2022/07/30 00:18:48;;;;;;;4.45;3.30;;;;;;;25.58;43.06;99605.63;5030255;28;20017;-37
2022/07/30 00:21:14;;;;;;;4.45;3.53;;;;;;;25.52;43.73;99602.22;5030323;28;20032;-37
2022/07/30 00:23:39;;;;;;;7.15;3.40;;;;;;;25.55;43.49;99596.16;5029749;28;20377;-37
2022/07/30 00:26:04;;;;;;;5.07;3.40;;;;;;;25.36;44.11;99601.75;5030169;28;20025;-37
2022/07/30 00:28:30;;;;;;;7.50;3.72;;;;;;;25.44;43.88;99593.97;5030020;28;20029;-36
2022/07/30 00:30:55;;;;;;;3.92;3.40;;;;;;;25.30;44.34;99586.63;5030195;28;20099;-36
2022/07/30 00:33:21;;;;;;;4.00;3.20;;;;;;;25.58;43.84;99594.72;5030110;28;20025;-36
2022/07/30 00:35:46;;;;;;;3.95;3.35;;;;;;;25.60;43.73;99597.16;5029892;28;20079;-37
2022/07/30 00:38:11;;;;;;;4.00;3.28;;;;;;;25.63;43.81;99591.91;5030113;28;20026;-37
2022/07/30 00:40:37;;;;;;;5.07;3.50;;;;;;;25.75;43.58;99591.34;5030121;28;20029;-37
2022/07/30 00:43:03;;;;;;;5.72;3.30;;;;;;;25.68;44.16;99590.97;5033068;28;20481;-37
2022/07/30 00:45:28;;;;;;;5.07;3.40;;;;;;;25.73;43.70;99588.94;5033370;28;20428;-37
2022/07/30 00:47:53;;;;;;;4.93;3.10;;;;;;;25.85;43.46;99590.31;5033306;28;20025;-36
2022/07/30 00:50:19;;;;;;;4.40;3.05;;;;;;;25.91;43.51;99594.50;5033644;28;20106;-36
2022/07/30 00:52:45;;;;;;;4.47;3.38;;;;;;;25.99;43.20;99588.38;5033609;28;20040;-37
2022/07/30 00:55:13;;;;;;;5.13;3.30;;;;;;;25.74;43.45;99582.38;5033713;28;20017;-37
2022/07/30 00:57:39;;;;;;;5.27;3.23;;;;;;;25.70;43.56;99588.72;5033624;28;20033;-38
2022/07/30 01:00:09;;;;;;;5.57;3.80;;;;;;;25.74;43.67;99576.94;5034001;28;20284;-37
2022/07/30 01:02:35;;;;;;;4.45;3.53;;;;;;;25.50;44.23;99579.91;5033403;28;20029;-37
2022/07/30 01:05:00;;;;;;;5.20;3.22;;;;;;;25.39;44.54;99581.25;5033534;28;20110;-37
2022/07/30 01:07:25;;;;;;;4.63;3.28;;;;;;;25.25;44.83;99569.59;5032965;28;20405;-37
2022/07/30 01:09:51;;;;;;;8.18;3.40;;;;;;;25.48;44.51;99584.06;5033564;28;20021;-36
2022/07/30 01:12:22;;;;;;;6.07;3.30;;;;;;;25.51;44.38;99583.44;5033092;28;20044;-36
2022/07/30 01:14:48;;;;;;;5.28;3.40;;;;;;;25.49;44.41;99585.66;5033862;28;20457;-37
2022/07/30 01:17:14;;;;;;;4.68;3.33;;;;;;;25.53;44.31;99581.22;5052670;28;20025;-36
2022/07/30 01:19:47;;;;;;;3.78;3.20;;;;;;;25.55;44.15;99577.09;5053228;28;20067;-36
2022/07/30 01:22:25;;;;;;;5.03;3.40;;;;;;;25.59;44.48;99574.56;5052982;28;20384;-36
2022/07/30 01:25:02;;;;;;;4.72;3.55;;;;;;;25.64;44.66;99585.31;5052776;28;20035;-37
2022/07/30 01:27:59;;;;;;;5.68;3.30;;;;;;;25.58;44.64;99578.38;5052590;28;20037;-36
2022/07/30 01:30:28;;;;;;;5.80;3.40;;;;;;;25.40;45.46;99582.88;5052981;28;20017;-37
2022/07/30 01:32:56;;;;;;;9.38;3.53;;;;;;;25.49;45.37;99578.31;5051398;28;20021;-37
2022/07/30 01:35:23;;;;;;;6.38;3.83;;;;;;;25.53;45.33;99582.03;5053240;28;20053;-37
2022/07/30 01:37:52;;;;;;;5.85;3.50;;;;;;;25.39;45.62;99577.72;5052622;28;20028;-37
2022/07/30 01:40:18;;;;;;;4.28;3.33;;;;;;;25.48;45.47;99573.97;5052687;28;20524;-37
2022/07/30 01:42:48;;;;;;;4.13;3.30;;;;;;;25.56;45.02;99564.25;5052594;28;20067;-37
2022/07/30 01:45:14;;;;;;;6.15;3.85;;;;;;;25.39;45.76;99575.00;5052920;28;20021;-37
2022/07/30 01:47:42;;;;;;;4.93;3.60;;;;;;;25.35;45.99;99569.38;5052822;28;20021;-37
2022/07/30 01:50:12;;;;;;;5.95;3.60;;;;;;;25.52;45.45;99574.16;5052407;28;20035;-42
2022/07/30 01:52:40;;;;;;;5.43;3.38;;;;;;;25.60;45.35;99572.63;5051699;28;20025;-36
2022/07/30 01:55:08;;;;;;;5.30;3.80;;;;;;;25.64;45.12;99566.25;5051639;28;20044;-37
2022/07/30 01:57:36;;;;;;;5.50;3.33;;;;;;;25.55;44.94;99566.19;5052558;28;20077;-37
2022/07/30 02:00:05;;;;;;;5.75;3.60;;;;;;;25.58;45.51;99567.47;5052026;28;20035;-37
2022/07/30 02:02:31;;;;;;;4.32;3.55;;;;;;;25.58;45.60;99574.84;5052238;28;20029;-37
2022/07/30 02:04:57;;;;;;;5.38;3.58;;;;;;;25.56;45.68;99567.00;5052207;28;20040;-37
2022/07/30 02:07:30;;;;;;;5.50;3.80;;;;;;;25.68;45.23;99577.34;5052236;28;20021;-37
2022/07/30 02:10:04;;;;;;;6.50;3.40;;;;;;;25.58;45.16;99578.38;5052092;28;20520;-38
2022/07/30 02:12:32;;;;;;;6.85;3.63;;;;;;;25.55;46.21;99581.72;5051734;28;20117;-38
2022/07/30 02:15:00;;;;;;;5.18;3.80;;;;;;;25.43;46.03;99584.19;5049835;28;20024;-38
2022/07/30 02:17:42;;;;;;;4.55;3.60;;;;;;;25.25;46.80;99578.56;5031965;28;20021;-37
2022/07/30 02:20:13;;;;;;;6.63;3.70;;;;;;;25.12;46.67;99577.44;5032550;28;20029;-37
2022/07/30 02:22:42;;;;;;;4.28;3.88;;;;;;;25.02;46.37;99585.00;5031804;28;20021;-36
2022/07/30 02:25:09;;;;;;;6.22;3.65;;;;;;;25.07;46.97;99582.97;5031768;28;20022;-36
2022/07/30 02:27:37;;;;;;;5.47;3.78;;;;;;;24.73;47.61;99583.38;5032163;28;20381;-36
2022/07/30 02:30:03;;;;;;;5.30;3.80;;;;;;;24.47;47.90;99580.34;5031585;28;20025;-37
2022/07/30 02:32:34;;;;;;;5.47;4.03;;;;;;;24.40;47.88;99581.50;5031670;28;20173;-37
2022/07/30 02:35:09;;;;;;;6.05;4.18;;;;;;;24.14;48.85;99575.72;5031804;28;20021;-37
2022/07/30 02:37:36;;;;;;;4.85;3.92;;;;;;;24.30;48.86;99578.19;5031500;28;20063;-37
2022/07/30 02:40:02;;;;;;;4.45;3.90;;;;;;;24.50;48.07;99572.38;5031658;28;20515;-37
2022/07/30 02:42:29;;;;;;;4.90;4.40;;;;;;;24.20;47.91;99573.72;5031334;28;20021;-37
2022/07/30 02:44:57;;;;;;;7.55;4.00;;;;;;;24.25;48.31;99579.06;5031676;28;20048;-37
2022/07/30 02:47:24;;;;;;;7.78;4.20;;;;;;;24.39;48.25;99576.38;5031726;28;20489;-36
2022/07/30 02:49:52;;;;;;;7.10;4.47;;;;;;;24.44;47.71;99575.47;5031519;28;20033;-36
2022/07/30 02:52:19;;;;;;;5.80;4.57;;;;;;;23.91;48.24;99571.19;5031088;28;20460;-36
2022/07/30 02:54:48;;;;;;;6.57;4.50;;;;;;;24.08;48.11;99568.75;5031107;28;20033;-36
2022/07/30 02:57:15;;;;;;;6.97;4.35;;;;;;;24.19;48.32;99564.75;5031396;28;20022;-36
2022/07/30 02:59:43;;;;;;;5.25;3.97;;;;;;;24.38;47.81;99577.47;5031335;28;20489;-36
2022/07/30 03:02:11;;;;;;;4.78;4.10;;;;;;;24.45;47.28;99569.75;5031615;28;20037;-36
2022/07/30 03:04:38;;;;;;;6.75;4.18;;;;;;;24.26;47.75;99567.09;5030474;28;20534;-36
2022/07/30 03:07:05;;;;;;;7.80;4.43;;;;;;;24.49;47.11;99565.31;5031523;28;20044;-36
2022/07/30 03:09:31;;;;;;;5.50;4.47;;;;;;;24.29;47.46;99562.97;5030887;28;20114;-36
2022/07/30 03:11:57;;;;;;;5.88;4.40;;;;;;;24.30;47.91;99562.66;5030631;28;20513;-34
2022/07/30 03:14:23;;;;;;;6.25;4.40;;;;;;;24.19;48.17;99553.88;5030801;28;20045;-37
2022/07/30 03:16:54;;;;;;;8.63;4.85;;;;;;;24.23;47.96;99545.13;5048176;28;20079;-36
2022/07/30 03:19:22;;;;;;;6.93;4.80;;;;;;;24.33;47.65;99553.09;5050637;28;20028;-36
2022/07/30 03:21:49;;;;;;;5.38;4.55;;;;;;;24.38;47.66;99550.28;5050569;28;20103;-36
2022/07/30 03:24:16;;;;;;;5.55;4.50;;;;;;;24.34;47.84;99546.56;5050648;28;20025;-36
2022/07/30 03:26:43;;;;;;;7.80;4.30;;;;;;;24.44;47.84;99557.25;5050445;28;20036;-36
2022/07/30 03:29:10;;;;;;;6.65;4.70;;;;;;;24.58;47.46;99557.31;5050695;28;20110;-36
2022/07/30 03:31:37;;;;;;;10.55;5.45;;;;;;;24.34;48.56;99558.25;5050784;28;20028;-36
2022/07/30 03:34:05;;;;;;;5.25;4.75;;;;;;;24.27;48.54;99557.00;5050461;28;20112;-36
2022/07/30 03:36:30;;;;;;;9.10;4.97;;;;;;;24.06;49.07;99557.38;5050080;28;20048;-36
2022/07/30 03:38:56;;;;;;;10.93;5.15;;;;;;;23.77;49.19;99565.69;5050377;28;20894;-36
2022/07/30 03:41:22;;;;;;;7.88;5.10;;;;;;;23.79;49.31;99568.94;5050267;28;20116;-36
2022/07/30 03:43:49;;;;;;;9.05;5.07;;;;;;;23.90;49.82;99566.88;5050465;28;20044;-36
2022/07/30 03:46:16;;;;;;;6.75;4.57;;;;;;;23.92;49.59;99570.91;5050018;28;20037;-36
2022/07/30 03:48:43;;;;;;;9.40;4.95;;;;;;;23.99;49.58;99574.06;5050523;28;20025;-36
2022/07/30 03:51:09;;;;;;;9.65;5.20;;;;;;;23.94;49.50;99570.63;5050131;28;20161;-37
2022/07/30 03:53:35;;;;;;;5.65;4.80;;;;;;;23.53;50.15;99571.19;5049771;28;20467;-36
2022/07/30 03:56:01;;;;;;;8.10;5.22;;;;;;;23.58;50.03;99580.09;5050119;28;20025;-36
2022/07/30 03:58:26;;;;;;;5.80;5.05;;;;;;;23.76;50.15;99583.06;5050086;28;20499;-34
2022/07/30 04:00:52;;;;;;;6.97;5.10;;;;;;;24.03;49.65;99585.16;5050703;28;20025;-37
2022/07/30 04:03:29;;;;;;;8.77;5.65;;;;;;;24.44;48.16;99579.00;5050277;28;20108;-37
2022/07/30 04:05:55;;;;;;;6.68;5.03;;;;;;;24.71;47.43;99582.88;5050181;28;20029;-35
2022/07/30 04:08:21;;;;;;;11.25;5.18;;;;;;;24.93;46.98;99574.03;5050128;28;20079;-37
2022/07/30 04:10:49;;;;;;;8.32;5.10;;;;;;;25.20;47.48;99584.09;5050522;28;20494;-36
2022/07/30 04:13:15;;;;;;;6.43;5.03;;;;;;;25.44;46.23;99586.59;5050283;28;20413;-36
2022/07/30 04:15:50;;;;;;;6.20;4.93;;;;;;;25.52;46.88;99587.78;5042033;28;20453;-36
2022/07/30 04:18:17;;;;;;;10.30;5.70;;;;;;;25.67;46.14;99589.38;5033433;28;20055;-37
2022/07/30 04:20:47;;;;;;;8.77;5.75;;;;;;;25.97;45.44;99590.59;5034328;28;20056;-38
2022/07/30 04:23:14;;;;;;;11.25;5.40;;;;;;;26.23;45.11;99592.69;5034359;28;20057;-37
2022/07/30 04:25:42;;;;;;;9.23;5.32;;;;;;;26.38;45.13;99586.03;5034158;28;20079;-36
2022/07/30 04:28:10;;;;;;;10.75;6.22;;;;;;;26.52;44.88;99592.19;5034122;28;20095;-37
2022/07/30 04:30:36;;;;;;;10.03;5.93;;;;;;;26.70;44.75;99585.72;5033832;28;20048;-37
2022/07/30 04:33:03;;;;;;;9.10;5.63;;;;;;;26.95;44.60;99591.59;5034022;28;20025;-37
2022/07/30 04:35:33;;;;;;;12.55;5.82;;;;;;;27.20;44.18;99594.72;5034189;28;20043;-37
2022/07/30 04:38:01;;;;;;;12.18;7.95;;;;;;;27.56;43.72;99593.66;5034104;28;20358;-37
2022/07/30 04:40:27;;;;;;;9.15;5.57;;;;;;;27.87;42.57;99593.50;5033742;28;20037;-37
2022/07/30 04:42:52;;;;;;;7.18;4.97;;;;;;;28.05;41.03;99588.84;5033935;28;20021;-36
2022/07/30 04:45:19;;;;;;;13.60;11.95;;;;;;;28.10;40.86;99594.13;5033702;28;20484;-37
2022/07/30 04:47:45;;;;;;;13.73;12.30;;;;;;;28.21;40.44;99591.88;5033915;28;20108;-36
2022/07/30 04:50:12;;;;;;;7.57;5.20;;;;;;;28.35;39.82;99595.25;5033554;28;20036;-37
2022/07/30 04:52:39;;;;;;;6.88;5.20;;;;;;;28.58;39.04;99600.50;5034365;28;20033;-37
2022/07/30 04:55:08;;;;;;;6.93;5.25;;;;;;;28.79;38.61;99606.06;5033915;28;20037;-35
2022/07/30 04:57:37;;;;;;;7.68;5.32;;;;;;;28.89;38.45;99597.47;5033624;28;20025;-35
2022/07/30 05:00:04;;;;;;;6.93;5.03;;;;;;;29.15;37.63;99591.91;5033494;28;20079;-37
2022/07/30 05:02:32;;;;;;;7.35;5.32;;;;;;;29.21;37.81;99604.25;5033134;28;20041;-36
2022/07/30 05:04:59;;;;;;;7.70;4.70;;;;;;;29.58;37.38;99592.72;5033374;28;20029;-37
2022/07/30 05:07:26;;;;;;;7.93;6.68;;;;;;;29.62;36.95;99594.47;5033512;28;20067;-36
2022/07/30 05:09:51;;;;;;;7.30;4.57;;;;;;;29.75;36.61;99597.28;5033400;28;20033;-37
2022/07/30 05:12:16;;;;;;;5.93;4.53;;;;;;;30.08;35.98;99593.75;5032822;28;20118;-37
2022/07/30 05:14:42;;;;;;;5.55;4.70;;;;;;;30.46;35.35;99592.75;5032871;28;20021;-37
2022/07/30 05:17:07;;;;;;;6.88;4.80;;;;;;;30.58;35.12;99596.31;5033342;28;20056;-37
2022/07/30 05:19:33;;;;;;;7.22;4.55;;;;;;;30.69;35.01;99593.94;5033532;28;20022;-37
2022/07/30 05:21:59;;;;;;;7.32;4.43;;;;;;;31.84;33.05;99586.44;5033254;28;20025;-37
2022/07/30 05:24:24;;;;;;;8.48;4.90;;;;;;;31.22;33.98;99596.78;5032703;28;20033;-37
2022/07/30 05:26:50;;;;;;;6.97;4.60;;;;;;;31.08;34.66;99597.16;5033010;28;20073;-37
2022/07/30 05:29:15;;;;;;;9.05;5.93;;;;;;;31.33;33.35;99591.63;5032209;28;20501;-37
2022/07/30 05:31:41;;;;;;;13.77;9.88;;;;;;;31.85;32.46;99601.78;5035162;28;20072;-37
2022/07/30 05:34:06;;;;;;;11.93;7.25;;;;;;;32.00;32.28;99597.50;5051721;28;20059;-37
2022/07/30 05:36:32;;;;;;;9.55;7.43;;;;;;;33.10;30.91;99600.69;5052900;28;20029;-37
2022/07/30 05:38:59;;;;;;;9.48;7.20;;;;;;;32.64;31.43;99601.19;5051698;28;20450;-37
2022/07/30 05:41:26;;;;;;;8.15;4.97;;;;;;;32.50;31.81;99590.59;5042303;28;20029;-36
2022/07/30 05:43:52;;;;;;;6.22;4.60;;;;;;;32.56;31.63;99593.06;5052748;28;20522;-37
2022/07/30 05:46:17;;;;;;;7.68;4.53;;;;;;;32.99;30.85;99592.16;5052827;28;20029;-37
2022/07/30 05:48:43;;;;;;;8.15;4.60;;;;;;;33.77;29.90;99586.81;5053069;28;20108;-37
2022/07/30 05:51:08;;;;;;;7.53;4.78;;;;;;;33.85;30.07;99596.84;5052784;28;20047;-37
2022/07/30 05:53:34;;;;;;;9.52;5.82;;;;;;;33.57;30.27;99594.28;5047457;28;20100;-37
2022/07/30 05:55:59;;;;;;;12.25;7.60;;;;;;;33.73;29.78;99596.97;5052291;28;20074;-37
2022/07/30 05:58:24;;;;;;;7.18;5.10;;;;;;;33.68;30.29;99589.81;5052157;28;20401;-38
2022/07/30 06:00:50;;;;;;;7.95;4.63;;;;;;;34.09;29.63;99583.88;5052713;28;20177;-37
2022/07/30 06:03:15;;;;;;;4.97;4.47;;;;;;;35.09;28.67;99593.09;5052160;28;20036;-37
2022/07/30 06:05:41;;;;;;;7.88;4.88;;;;;;;34.59;29.10;99593.06;5051887;28;20032;-37
2022/07/30 06:08:06;;;;;;;6.68;4.60;;;;;;;34.19;29.50;99591.59;5051999;28;20021;-37
2022/07/30 06:10:32;;;;;;;6.22;4.60;;;;;;;34.28;29.72;99594.91;5051803;28;20028;-37
2022/07/30 06:12:58;;;;;;;7.65;4.80;;;;;;;34.64;28.63;99594.72;5049608;28;20443;-37
2022/07/30 06:15:23;;;;;;;10.48;4.85;;;;;;;35.24;28.25;99594.09;5044108;28;20393;-38
2022/07/30 06:17:49;;;;;;;6.22;4.65;;;;;;;35.27;28.10;99593.38;5030043;28;20022;-37
2022/07/30 06:20:16;;;;;;;7.78;4.60;;;;;;;35.00;27.87;99596.13;5030634;28;20021;-37
2022/07/30 06:22:41;;;;;;;7.70;4.60;;;;;;;34.88;27.92;99584.47;5030885;28;20025;-37
2022/07/30 06:25:08;;;;;;;4.80;4.03;;;;;;;34.95;27.75;99587.34;5029358;28;20032;-37
2022/07/30 06:27:35;;;;;;;22.48;11.48;;;;;;;34.95;28.10;99593.66;5031096;28;20039;-36
2022/07/30 06:30:01;;;;;;;11.20;5.50;;;;;;;35.96;27.00;99584.75;5031577;28;20034;-38
2022/07/30 06:32:27;;;;;;;11.77;6.10;;;;;;;35.91;26.82;99592.59;5031545;28;20476;-35
2022/07/30 06:34:52;;;;;;;8.93;4.90;;;;;;;35.70;27.13;99593.94;5031717;28;20017;-37
2022/07/30 06:37:17;;;;;;;8.98;4.80;;;;;;;35.47;27.45;99594.03;5031465;28;20481;-37
2022/07/30 06:39:43;;;;;;;8.23;4.68;;;;;;;35.75;27.53;99598.34;5030785;28;20104;-36
2022/07/30 06:42:08;;;;;;;9.57;4.53;;;;;;;36.44;26.16;99597.09;5031601;28;20025;-37
2022/07/30 06:44:34;;;;;;;6.97;4.13;;;;;;;36.49;26.12;99591.22;5031479;28;20473;-37
2022/07/30 06:46:59;;;;;;;8.65;4.63;;;;;;;36.18;26.05;99604.38;5031242;28;20512;-37
2022/07/30 06:49:25;;;;;;;9.27;6.00;;;;;;;36.20;26.24;99594.50;5030665;28;20509;-38
2022/07/30 06:51:50;;;;;;;9.57;4.63;;;;;;;36.25;26.29;99598.09;5030927;28;20056;-37
2022/07/30 06:54:16;;;;;;;7.93;4.18;;;;;;;36.52;26.16;99593.19;5030746;28;20030;-39
2022/07/30 06:56:41;;;;;;;6.13;4.43;;;;;;;37.24;24.90;99596.53;5031145;28;20028;-39
2022/07/30 06:59:06;;;;;;;6.05;3.88;;;;;;;36.83;25.45;99588.34;5030990;28;20033;-38
2022/07/30 07:01:32;;;;;;;8.70;4.60;;;;;;;36.54;25.13;99585.34;5031234;28;20030;-37
2022/07/30 07:03:57;;;;;;;14.00;7.05;;;;;;;36.70;25.11;99577.56;5031488;28;20044;-38
2022/07/30 07:06:23;;;;;;;7.35;4.80;;;;;;;36.83;24.82;99569.72;5031352;28;20433;-37
2022/07/30 07:08:48;;;;;;;6.43;4.45;;;;;;;37.52;24.76;99566.16;5030398;28;20413;-37
2022/07/30 07:11:14;;;;;;;5.47;4.20;;;;;;;37.56;24.33;99571.72;5031160;28;20433;-37
2022/07/30 07:13:39;;;;;;;6.45;4.90;;;;;;;36.92;24.78;99570.19;5030987;28;20398;-36
2022/07/30 07:16:05;;;;;;;5.80;4.20;;;;;;;36.91;24.71;99563.03;5030635;28;20024;-38
2022/07/30 07:18:30;;;;;;;8.48;4.07;;;;;;;37.17;24.28;99575.13;5030895;28;20040;-38
2022/07/30 07:20:55;;;;;;;5.57;4.18;;;;;;;37.35;24.57;99570.44;5030797;28;20331;-38
2022/07/30 07:23:22;;;;;;;5.53;4.22;;;;;;;37.65;23.79;99569.41;5030671;28;20458;-36
2022/07/30 07:25:48;;;;;;;8.55;4.13;;;;;;;36.85;24.43;99574.91;5030180;28;20085;-37
2022/07/30 07:28:13;;;;;;;7.28;4.78;;;;;;;36.61;24.57;99565.97;5030422;28;20143;-36
2022/07/30 07:30:42;;;;;;;5.55;4.38;;;;;;;36.59;24.79;99562.78;5030603;28;20098;-37
2022/07/30 07:33:09;;;;;;;6.03;4.13;;;;;;;36.82;24.93;99548.72;5030877;28;20413;-37
2022/07/30 07:35:35;;;;;;;5.97;4.45;;;;;;;37.87;23.40;99555.59;5030544;28;20021;-37
2022/07/30 07:38:01;;;;;;;4.72;4.10;;;;;;;37.35;24.24;99559.34;5030795;28;20108;-38
2022/07/30 07:40:26;;;;;;;6.82;4.60;;;;;;;37.30;24.39;99553.38;5030141;28;20106;-37
2022/07/30 07:42:52;;;;;;;9.48;4.55;;;;;;;36.79;24.87;99557.84;5030365;28;20469;-37
2022/07/30 07:45:18;;;;;;;6.63;4.28;;;;;;;36.70;25.33;99560.13;5030247;28;20474;-37
2022/07/30 07:47:48;;;;;;;4.93;4.15;;;;;;;37.42;24.60;99555.03;5030532;28;20109;-37
2022/07/30 07:50:16;;;;;;;6.63;4.72;;;;;;;38.01;23.93;99555.63;5029998;28;20104;-38
2022/07/30 07:52:41;;;;;;;6.85;4.75;;;;;;;37.74;23.92;99555.97;5030310;28;20048;-38
2022/07/30 07:55:07;;;;;;;5.75;4.70;;;;;;;37.48;24.23;99545.16;5030129;28;20104;-35
2022/07/30 07:57:40;;;;;;;7.57;4.43;;;;;;;36.63;24.99;99546.19;5030609;28;20104;-37
2022/07/30 08:00:11;;;;;;;8.02;4.57;;;;;;;35.96;26.30;99534.91;5031022;28;20116;-38
2022/07/30 08:02:36;;;;;;;6.65;4.32;;;;;;;37.09;24.80;99534.63;5030523;28;20029;-39
2022/07/30 08:05:04;;;;;;;4.90;4.40;;;;;;;36.52;25.28;99532.25;5030706;28;20017;-37
2022/07/30 08:07:30;;;;;;;7.75;4.60;;;;;;;36.71;25.03;99523.72;5030710;28;20030;-38
2022/07/30 08:09:56;;;;;;;5.78;4.32;;;;;;;37.02;24.83;99542.94;5030486;28;20070;-38
2022/07/30 08:12:21;;;;;;;6.80;5.22;;;;;;;37.35;23.99;99542.69;5030080;28;20053;-37
2022/07/30 08:14:47;;;;;;;7.50;4.78;;;;;;;37.88;23.52;99534.97;5029883;28;20470;-36
2022/07/30 08:17:12;;;;;;;5.32;4.07;;;;;;;36.96;24.79;99539.72;5030245;28;20025;-37
2022/07/30 08:19:38;;;;;;;4.53;3.90;;;;;;;37.04;24.88;99537.78;5030326;28;20469;-37
2022/07/30 08:22:04;;;;;;;6.40;4.55;;;;;;;37.15;24.80;99533.13;5030103;28;20025;-38
2022/07/30 08:24:29;;;;;;;7.47;4.20;;;;;;;37.48;24.13;99525.72;5030215;28;20034;-38
2022/07/30 08:26:55;;;;;;;7.10;4.20;;;;;;;37.78;24.27;99522.66;5030137;28;20033;-36
2022/07/30 08:29:20;;;;;;;6.38;4.28;;;;;;;38.22;23.78;99524.31;5029935;28;20035;-37
2022/07/30 08:31:46;;;;;;;5.90;4.22;;;;;;;38.29;23.37;99504.06;5029956;28;20040;-36
2022/07/30 08:34:12;;;;;;;6.03;4.30;;;;;;;37.95;23.98;99521.91;5030126;28;20025;-37
2022/07/30 08:36:37;;;;;;;4.93;3.95;;;;;;;37.32;24.14;99518.53;5030049;28;20104;-37
2022/07/30 08:39:03;;;;;;;6.75;4.03;;;;;;;37.06;24.32;99518.78;5029867;28;20172;-37
2022/07/30 08:41:29;;;;;;;6.03;4.00;;;;;;;37.14;24.56;99512.91;5029900;28;20029;-38
2022/07/30 08:43:59;;;;;;;4.47;4.07;;;;;;;37.82;23.99;99512.34;5030319;28;20033;-39
2022/07/30 08:46:28;;;;;;;4.72;4.10;;;;;;;36.86;24.46;99513.53;5029523;28;20408;-36
2022/07/30 08:48:54;;;;;;;6.25;4.10;;;;;;;36.64;24.52;99514.53;5029992;28;20025;-36
2022/07/30 08:51:21;;;;;;;5.70;3.90;;;;;;;36.32;24.67;99509.56;5029791;28;20040;-38
2022/07/30 08:53:47;;;;;;;5.63;3.70;;;;;;;36.23;24.39;99501.56;5030165;28;20018;-38
2022/07/30 08:56:13;;;;;;;5.15;3.60;;;;;;;36.07;26.08;99499.03;5029825;28;20022;-37
2022/07/30 08:58:38;;;;;;;7.28;3.78;;;;;;;36.43;25.45;99496.59;5030236;28;20022;-37
2022/07/30 09:01:05;;;;;;;5.68;3.67;;;;;;;36.68;24.58;99496.00;5030294;28;20029;-38
2022/07/30 09:03:31;;;;;;;7.32;3.92;;;;;;;35.93;25.35;99493.34;5031531;28;20112;-37
2022/07/30 09:05:57;;;;;;;4.90;3.55;;;;;;;36.17;24.41;99492.03;5033199;28;20397;-37
2022/07/30 09:08:23;;;;;;;6.82;3.80;;;;;;;35.96;24.39;99487.06;5033399;28;20493;-37
2022/07/30 09:10:48;;;;;;;3.95;3.28;;;;;;;35.13;25.08;99483.34;5033182;28;20041;-38
2022/07/30 09:13:29;;;;;;;4.10;3.35;;;;;;;35.63;24.95;99475.66;5033919;28;20057;-38
2022/07/30 09:15:55;;;;;;;8.73;4.30;;;;;;;36.17;25.32;99481.72;5033467;28;20028;-37
2022/07/30 09:18:30;;;;;;;6.47;4.70;;;;;;;36.04;25.04;99472.09;5033401;28;20100;-37
2022/07/30 09:20:58;;;;;;;5.10;3.60;;;;;;;35.75;24.99;99465.50;5033319;28;20028;-37
2022/07/30 09:23:23;;;;;;;5.40;3.78;;;;;;;36.12;24.70;99472.94;5033229;28;20026;-37
2022/07/30 09:25:50;;;;;;;6.25;3.53;;;;;;;36.63;24.25;99463.84;5033026;28;20370;-37
2022/07/30 09:28:15;;;;;;;4.90;3.65;;;;;;;36.64;23.54;99457.13;5032589;28;20040;-37
2022/07/30 09:30:52;;;;;;;5.53;3.53;;;;;;;36.52;23.94;99454.69;5032996;28;20030;-37
2022/07/30 09:33:33;;;;;;;4.35;3.35;;;;;;;36.75;23.30;99448.94;5033095;28;20036;-37
2022/07/30 09:35:59;;;;;;;4.00;3.60;;;;;;;35.93;24.24;99441.56;5032812;28;20113;-37
2022/07/30 09:38:25;;;;;;;3.85;3.50;;;;;;;35.88;25.47;99441.13;5033127;28;20022;-37
2022/07/30 09:40:52;;;;;;;5.95;3.83;;;;;;;35.84;25.72;99443.88;5032886;28;20349;-37
2022/07/30 09:43:18;;;;;;;4.57;3.60;;;;;;;35.58;23.32;99434.47;5033040;28;20143;-37
2022/07/30 09:45:59;;;;;;;3.92;3.55;;;;;;;35.80;24.06;99430.00;5032717;28;20021;-37
2022/07/30 09:48:27;;;;;;;4.47;3.60;;;;;;;36.47;23.77;99439.22;5032634;28;20148;-37
2022/07/30 09:50:54;;;;;;;4.68;3.40;;;;;;;35.91;23.20;99432.03;5032594;28;20451;-36
2022/07/30 09:53:23;;;;;;;5.03;3.53;;;;;;;35.78;24.62;99420.50;5032855;28;20033;-35
2022/07/30 09:55:49;;;;;;;4.80;3.50;;;;;;;35.94;24.06;99414.69;5032596;28;20090;-37
2022/07/30 09:58:14;;;;;;;6.78;3.50;;;;;;;35.91;24.09;99426.50;5032575;28;20029;-37
2022/07/30 10:00:41;;;;;;;3.60;3.15;;;;;;;35.52;22.83;99415.84;5032162;28;20029;-36
2022/07/30 10:03:19;;;;;;;4.68;3.30;;;;;;;35.93;22.47;99421.38;5032545;28;20030;-37
2022/07/30 10:05:55;;;;;;;5.03;3.40;;;;;;;35.97;22.71;99420.25;5032353;28;20508;-36
2022/07/30 10:08:40;;;;;;;3.97;3.30;;;;;;;35.64;23.83;99418.31;5032366;28;20401;-36
2022/07/30 10:11:12;;;;;;;5.22;3.22;;;;;;;35.49;24.46;99413.84;5032023;28;20045;-37
2022/07/30 10:13:38;;;;;;;4.75;3.30;;;;;;;35.41;24.61;99410.22;5031992;28;20469;-37
2022/07/30 10:16:04;;;;;;;4.15;3.25;;;;;;;36.05;23.67;99398.94;5030974;28;20018;-38
2022/07/30 10:18:30;;;;;;;4.45;3.40;;;;;;;36.45;23.46;99408.34;5031523;28;20486;-37
2022/07/30 10:20:57;;;;;;;4.53;3.30;;;;;;;36.77;23.86;99405.00;5031655;28;20037;-37
2022/07/30 10:23:26;;;;;;;4.07;3.67;;;;;;;36.47;24.90;99397.66;5031943;28;20021;-37
2022/07/30 10:25:55;;;;;;;3.58;3.28;;;;;;;35.97;24.44;99394.53;5032088;28;20112;-37
2022/07/30 10:28:22;;;;;;;5.60;3.33;;;;;;;35.40;25.17;99395.59;5032060;28;20028;-37
2022/07/30 10:30:55;;;;;;;4.75;3.45;;;;;;;36.00;24.01;99391.00;5031820;28;20113;-36
2022/07/30 10:33:22;;;;;;;3.78;3.38;;;;;;;36.70;23.61;99389.09;5031445;28;20021;-37
2022/07/30 10:35:48;;;;;;;6.07;3.30;;;;;;;36.87;23.09;99387.59;5031877;28;20105;-41
2022/07/30 10:38:15;;;;;;;3.60;3.13;;;;;;;36.78;24.13;99389.94;5031779;28;20064;-37
2022/07/30 10:40:49;;;;;;;5.27;3.30;;;;;;;36.36;23.80;99391.28;5031924;28;20136;-37
2022/07/30 10:43:47;;;;;;;4.63;3.17;;;;;;;36.03;25.01;99383.91;5031806;28;20032;-37
2022/07/30 10:46:18;;;;;;;4.72;3.20;;;;;;;35.94;24.95;99367.63;5024569;28;20124;-38
2022/07/30 10:48:43;;;;;;;5.95;3.40;;;;;;;36.38;24.28;99361.22;5040848;28;20043;-43
2022/07/30 10:51:10;;;;;;;4.90;3.00;;;;;;;36.49;24.10;99355.72;5047648;28;20424;-45
2022/07/30 10:53:39;;;;;;;4.45;3.30;;;;;;;36.38;24.35;99362.00;5031584;28;20029;-43
2022/07/30 10:56:21;;;;;;;6.03;3.42;;;;;;;36.43;24.37;99349.78;5031763;28;20045;-47
2022/07/30 10:59:00;;;;;;;3.50;3.20;;;;;;;36.81;23.89;99350.34;5031936;28;20485;-45
2022/07/30 11:01:45;;;;;;;;;;;;;;;36.44;24.29;99350.56;5032347;28;20037;-45
2022/07/30 11:04:18;;;;;;;4.93;3.10;;;;;;;36.68;23.19;99341.59;5031145;28;20348;-44
2022/07/30 11:06:44;;;;;;;6.97;3.42;;;;;;;36.82;23.60;99340.06;5031583;28;20032;-44
2022/07/30 11:09:38;;;;;;;4.20;3.20;;;;;;;36.79;23.85;99338.88;5040902;28;20021;-44
2022/07/30 11:12:08;;;;;;;6.65;3.20;;;;;;;37.49;23.38;99324.75;5050745;28;20052;-44
2022/07/30 11:14:45;;;;;;;3.50;3.20;;;;;;;37.34;23.45;99333.06;5050871;28;20040;-45
2022/07/30 11:17:18;;;;;;;4.03;3.17;;;;;;;36.85;23.64;99317.91;5030940;28;20163;-44
2022/07/30 11:20:05;;;;;;;4.32;3.20;;;;;;;36.83;23.84;99327.81;5030864;28;20067;-44
2022/07/30 11:22:40;;;;;;;3.45;3.15;;;;;;;36.66;22.64;99324.56;5030684;28;20136;-44
2022/07/30 11:25:31;;;;;;;3.30;3.00;;;;;;;37.27;22.26;99321.19;5030097;28;20104;-46
2022/07/30 11:27:59;;;;;;;4.20;2.80;;;;;;;37.12;21.61;99317.56;5030802;28;20029;-45
2022/07/30 11:30:27;;;;;;;3.33;3.03;;;;;;;37.28;22.08;99320.78;5030756;28;20492;-45
2022/07/30 11:33:13;;;;;;;;;;;;;;;37.05;22.74;99314.78;5030769;28;20116;-45
2022/07/30 11:35:38;;;;;;;3.00;2.70;;;;;;;37.46;22.34;99290.28;5022759;28;19909;-42
2022/07/30 11:38:14;;;;;;;5.18;2.92;;;;;;;38.32;21.43;99294.94;5030645;28;20060;-46